Time,TemperatureF,DewpointF,PressureIn,WindDirection,WindDirectionDegrees,WindSpeedMPH,WindSpeedGustMPH,Humidity,HourlyPrecipIn,Conditions,Clouds,dailyrainin,SoftwareType,DateUTC
2013-07-24 00:00:00,68.1,51.3,29.90,East,81,0.0,0.0,55,0.00,,,0.00,Wunderground v.1.15,2013-07-24 05:00:00,
2013-07-24 00:30:00,67.3,51.5,29.90,East,81,0.0,0.0,57,0.00,,,0.00,Wunderground v.1.15,2013-07-24 05:30:00,
2013-07-24 01:00:00,66.4,51.6,29.90,East,81,0.0,0.0,59,0.00,,,0.00,Wunderground v.1.15,2013-07-24 06:00:00,
2013-07-24 01:30:00,65.6,51.3,29.91,East,81,0.0,0.0,60,0.00,,,0.00,Wunderground v.1.15,2013-07-24 06:30:00,
2013-07-24 02:00:00,64.8,50.6,29.91,East,81,0.0,0.0,60,0.00,,,0.00,Wunderground v.1.15,2013-07-24 07:00:00,
2013-07-24 02:30:00,64.0,50.3,29.92,East,81,0.0,0.0,61,0.00,,,0.00,Wunderground v.1.15,2013-07-24 07:30:00,
2013-07-24 03:00:00,63.2,50.4,29.92,East,81,0.0,0.0,63,0.00,,,0.00,Wunderground v.1.15,2013-07-24 08:00:00,
2013-07-24 03:30:00,62.3,50.8,29.92,East,81,0.0,0.0,66,0.00,,,0.00,Wunderground v.1.15,2013-07-24 08:30:00,
2013-07-24 04:00:00,61.5,50.0,29.92,East,81,0.0,0.0,66,0.00,,,0.00,Wunderground v.1.15,2013-07-24 09:00:00,
2013-07-24 04:30:00,61.0,49.6,29.92,East,81,0.0,0.0,66,0.00,,,0.00,Wunderground v.1.15,2013-07-24 09:30:00,
2013-07-24 05:00:00,61.2,50.2,29.92,East,81,0.0,0.0,67,0.00,,,0.00,Wunderground v.1.15,2013-07-24 10:00:00,
2013-07-24 05:30:00,61.3,50.2,29.93,East,81,0.0,0.0,67,0.00,,,0.00,Wunderground v.1.15,2013-07-24 10:30:00,
2013-07-24 06:00:00,61.3,50.2,29.93,East,81,0.0,0.0,67,0.00,,,0.00,Wunderground v.1.15,2013-07-24 11:00:00,
2013-07-24 06:30:00,61.2,50.2,29.94,East,81,0.0,0.0,67,0.00,,,0.00,Wunderground v.1.15,2013-07-24 11:30:00,
2013-07-24 07:00:00,61.3,50.2,29.94,East,81,0.0,0.0,67,0.00,,,0.00,Wunderground v.1.15,2013-07-24 12:00:00,
2013-07-24 07:30:00,62.1,51.4,29.95,East,81,0.0,0.0,68,0.00,,,0.00,Wunderground v.1.15,2013-07-24 12:30:00,
2013-07-24 08:00:00,62.6,51.9,29.95,East,81,0.0,0.0,68,0.00,,,0.00,Wunderground v.1.15,2013-07-24 13:00:00,
2013-07-24 08:30:00,63.2,51.6,29.95,East,81,0.0,0.0,66,0.00,,,0.00,Wunderground v.1.15,2013-07-24 13:30:00,
2013-07-24 09:00:00,64.0,52.4,29.95,East,81,0.0,0.0,66,0.00,,,0.00,Wunderground v.1.15,2013-07-24 14:00:00,
2013-07-24 09:30:00,64.7,52.2,29.96,East,81,0.0,0.0,64,0.00,,,0.00,Wunderground v.1.15,2013-07-24 14:30:00,
2013-07-24 10:00:00,65.2,52.7,29.96,East,81,0.0,0.0,64,0.00,,,0.00,Wunderground v.1.15,2013-07-24 15:00:00,
2013-07-24 10:30:00,66.0,53.0,29.96,East,81,0.0,0.0,63,0.00,,,0.00,Wunderground v.1.15,2013-07-24 15:30:00,
2013-07-24 11:00:00,67.1,54.1,29.95,East,81,0.0,0.0,63,0.00,,,0.00,Wunderground v.1.15,2013-07-24 16:00:00,
2013-07-24 11:30:00,67.4,54.8,29.95,East,81,0.0,0.0,64,0.00,,,0.00,Wunderground v.1.15,2013-07-24 16:30:00,
2013-07-24 12:00:00,67.3,55.1,29.95,East,81,0.0,0.0,65,0.00,,,0.00,Wunderground v.1.15,2013-07-24 17:00:00,
2013-07-24 12:30:00,67.1,55.4,29.95,East,81,0.0,0.0,66,0.00,,,0.00,Wunderground v.1.15,2013-07-24 17:30:00,
2013-07-24 13:00:00,72.1,57.0,29.94,SW,219,0.0,0.0,59,0.00,,,0.00,Wunderground v.1.15,2013-07-24 18:00:00,
2013-07-24 13:30:00,74.4,55.1,29.92,NW,304,0.0,0.0,51,0.00,,,0.00,Wunderground v.1.15,2013-07-24 18:30:00,
2013-07-24 14:00:00,76.5,56.5,29.91,NW,322,0.0,0.0,50,0.00,,,0.00,Wunderground v.1.15,2013-07-24 19:00:00,
2013-07-24 14:30:00,77.2,56.6,29.90,NW,308,0.0,0.0,49,0.00,,,0.00,Wunderground v.1.15,2013-07-24 19:30:00,
2013-07-24 15:00:00,76.3,56.8,29.90,NE,43,0.0,0.0,51,0.00,,,0.00,Wunderground v.1.15,2013-07-24 20:00:00,
2013-07-24 15:30:00,76.5,55.9,29.90,North,359,0.0,0.0,49,0.00,,,0.00,Wunderground v.1.15,2013-07-24 20:30:00,
2013-07-24 16:00:00,78.6,56.7,29.89,NW,321,0.0,0.0,47,0.00,,,0.00,Wunderground v.1.15,2013-07-24 21:00:00,
2013-07-24 16:30:00,77.0,56.4,29.88,WNW,285,0.0,0.0,49,0.00,,,0.00,Wunderground v.1.15,2013-07-24 21:30:00,
2013-07-24 17:00:00,75.6,55.6,29.87,WSW,252,0.0,0.0,50,0.00,,,0.00,Wunderground v.1.15,2013-07-24 22:00:00,
2013-07-24 17:30:00,74.6,55.3,29.88,ESE,106,0.0,0.0,51,0.00,,,0.00,Wunderground v.1.15,2013-07-24 22:30:00,
2013-07-24 18:00:00,74.2,54.9,29.87,ESE,106,0.0,0.0,51,0.00,,,0.00,Wunderground v.1.15,2013-07-24 23:00:00,
2013-07-24 18:30:00,74.9,54.4,29.87,East,97,0.0,0.0,49,0.00,,,0.00,Wunderground v.1.15,2013-07-24 23:30:00,
2013-07-24 19:00:00,74.9,56.6,29.86,West,262,0.0,0.0,53,0.00,,,0.00,Wunderground v.1.15,2013-07-25 00:00:00,
2013-07-24 19:30:00,74.4,55.6,29.86,West,262,0.0,0.0,52,0.00,,,0.00,Wunderground v.1.15,2013-07-25 00:30:00,
2013-07-24 20:00:00,73.7,56.0,29.86,West,262,0.0,0.0,54,0.00,,,0.00,Wunderground v.1.15,2013-07-25 01:00:00,
2013-07-24 20:30:00,72.3,58.1,29.85,West,262,0.0,0.0,61,0.00,,,0.00,Wunderground v.1.15,2013-07-25 01:30:00,
2013-07-24 21:00:00,70.6,57.4,29.85,West,262,0.0,0.0,63,0.00,,,0.00,Wunderground v.1.15,2013-07-25 02:00:00,
2013-07-24 21:30:00,70.3,57.1,29.85,West,262,0.0,0.0,63,0.00,,,0.00,Wunderground v.1.15,2013-07-25 02:30:00,
2013-07-24 22:00:00,69.6,56.4,29.86,West,262,0.0,0.0,63,0.00,,,0.00,Wunderground v.1.15,2013-07-25 03:00:00,
2013-07-24 22:30:00,68.9,56.6,29.86,West,262,0.0,0.0,65,0.00,,,0.00,Wunderground v.1.15,2013-07-25 03:30:00,
2013-07-24 23:00:00,68.3,56.9,29.86,West,262,0.0,0.0,67,0.00,,,0.00,Wunderground v.1.15,2013-07-25 04:00:00,
2013-07-24 23:30:00,67.6,56.7,29.86,West,262,0.0,0.0,68,0.00,,,0.00,Wunderground v.1.15,2013-07-25 04:30:00,